Terminal Aerodrome Forecast
Issued by NWS Wilmington, OH

Current Version | Previous Version | Graphics & Text | Print | Product List | Glossary On
Versions: 1 2 3 4 5 6 7 8 9 10 11 12 13 14 15 16 17 18 19 20 21 22 23
763
FTUS41 KILN 161459 AAA
TAFCVG
TAF AMD
KCVG 161459Z 1615/1718 28007KT P6SM SCT015 BKN100
      TEMPO 1615/1616 BKN015
     FM161900 27007KT P6SM SCT025
      TEMPO 1619/1623 BKN025
     FM162300 26005KT P6SM OVC022
     FM170800 26004KT P6SM OVC015
     FM171600 27007KT P6SM BKN022=

USA.gov is the U.S. government's official web portal to all federal, state and local government web resources and services.